»·PEaware :: AAL15 KLAS-KLAX

AAL15 :: KLAS-KLAX

FLIGHT INFORMATION

Flight Status: Arrived
Operator:
American Airlines
More flights by this operator :: More flights under this callsign
Pilot: Jordan S. (14404)
Aircraft: BOEING 737-800
(B738)
More flights by this aircraft type
Origin: KLAS McCarran Intl
United States
Destination: KLAX Los Angeles Intl
United States
More flights between these airports :: More routes between these airports
Route: +BOACH8 RIKII SHTNR ANJLL2
File this flight plan on PilotEdge
Remarks:
Altitude:
(Current/Filed)
26,000ft
Speed:
(Current/Filed)
470kts
Departed: 05-Jan-18 08:56 PM
Arrived: 05-Jan-18 09:38 PM
Distance/Time
Traveled:
205nm/0:42
Distance/Time
To Go:
Arrived

Flight Plot

Page will automatically refresh every two minutes.

Flight plan parsing failed; only flown route is shown


Map Options




Map Legend


Flown Route
Filed Route
Departure Airport
Arrival Airport
Navaid (VOR, NDB)
Fix

Horizontal Profiles

Position Reports

Time Latitude Longitude Heading Altitude Ground
Speed
05-Jan-18 20:25 36.079787 -115.145846 335 2149ft 0kts
05-Jan-18 20:26 36.079787 -115.145846 335 2149ft 0kts
05-Jan-18 20:27 36.079787 -115.145846 335 2149ft 0kts
05-Jan-18 20:28 36.079787 -115.145846 335 2149ft 0kts
05-Jan-18 20:29 36.079787 -115.145846 335 2149ft 0kts
05-Jan-18 20:30 36.079787 -115.145846 335 2149ft 0kts
05-Jan-18 20:31 36.079787 -115.145846 335 2149ft 0kts
05-Jan-18 20:32 36.079787 -115.145846 335 2149ft 0kts
05-Jan-18 20:33 36.079787 -115.145846 335 2149ft 0kts
05-Jan-18 20:34 36.079787 -115.145846 335 2149ft 0kts
05-Jan-18 20:35 36.079787 -115.145846 335 2149ft 0kts
05-Jan-18 20:36 36.079787 -115.145846 335 2149ft 0kts
05-Jan-18 20:37 36.079787 -115.145846 335 2149ft 0kts
05-Jan-18 20:38 36.079787 -115.145846 335 2149ft 0kts
05-Jan-18 20:39 36.079787 -115.145846 335 2149ft 0kts
05-Jan-18 20:40 36.079787 -115.145846 335 2149ft 0kts
05-Jan-18 20:41 36.079787 -115.145846 335 2149ft 0kts
05-Jan-18 20:42 36.079787 -115.145846 335 2149ft 0kts
05-Jan-18 20:43 36.079787 -115.145846 335 2149ft 0kts
05-Jan-18 20:44 36.079787 -115.145846 335 2149ft 0kts
05-Jan-18 20:45 36.079787 -115.145846 335 2149ft 0kts
05-Jan-18 20:46 36.079787 -115.145846 335 2149ft 0kts
05-Jan-18 20:47 36.079787 -115.145846 335 2149ft 0kts
05-Jan-18 20:48 36.079787 -115.145846 335 2149ft 0kts
05-Jan-18 20:49 36.079787 -115.145846 335 2149ft 0kts
05-Jan-18 20:50 36.079026 -115.145869 65 2149ft 0kts
05-Jan-18 20:51 36.078883 -115.144969 151 2149ft 0kts
05-Jan-18 20:52 36.078883 -115.144969 151 2149ft 0kts
05-Jan-18 20:53 36.078883 -115.144969 151 2149ft 0kts
05-Jan-18 20:54 36.078871 -115.144963 155 2149ft 0kts
05-Jan-18 20:55 36.078677 -115.149729 274 2149ft 18kts
05-Jan-18 20:56 36.081070 -115.154660 335 2149ft 18kts
05-Jan-18 20:57 36.086743 -115.157840 351 2149ft 26kts
05-Jan-18 20:58 36.092768 -115.154665 24 2149ft 26kts
05-Jan-18 20:59 36.097680 -115.152134 337 2149ft 0kts
05-Jan-18 21:00 36.098000 -115.152528 296 2149ft 0kts
05-Jan-18 21:01 36.098000 -115.152528 296 2149ft 0kts
05-Jan-18 21:02 36.087527 -115.159861 204 2153ft 163kts
05-Jan-18 21:03 36.034992 -115.188978 206 4030ft 236kts
05-Jan-18 21:04 35.993914 -115.248734 242 5866ft 240kts
05-Jan-18 21:05 35.940699 -115.304608 186 7400ft 277kts
05-Jan-18 21:06 35.863073 -115.314369 185 9711ft 287kts
05-Jan-18 21:07 35.776384 -115.306090 174 12137ft 353kts
05-Jan-18 21:08 35.674531 -115.294428 176 14671ft 383kts
05-Jan-18 21:09 35.576636 -115.343171 191 17176ft 398kts
05-Jan-18 21:10 35.465289 -115.333051 171 19796ft 413kts
05-Jan-18 21:11 35.349931 -115.310472 171 22407ft 430kts
05-Jan-18 21:12 35.229927 -115.286998 171 25020ft 447kts
05-Jan-18 21:13 35.105959 -115.263046 174 25991ft 454kts
05-Jan-18 21:14 34.991882 -115.315463 226 25994ft 455kts
05-Jan-18 21:15 34.953609 -115.456736 276 25994ft 463kts
05-Jan-18 21:16 35.013437 -115.594552 300 25985ft 472kts
05-Jan-18 21:17 35.016429 -115.740757 237 25985ft 483kts
05-Jan-18 21:18 34.914822 -115.847028 223 26008ft 493kts
05-Jan-18 21:19 34.817699 -115.967650 226 26001ft 505kts
05-Jan-18 21:20 34.719853 -116.091576 225 26001ft 512kts
05-Jan-18 21:21 34.621215 -116.216908 226 26000ft 515kts
05-Jan-18 21:22 34.521800 -116.343431 226 26003ft 525kts
05-Jan-18 21:23 34.420425 -116.472857 228 25992ft 533kts
05-Jan-18 21:24 34.354653 -116.626015 244 25952ft 443kts
05-Jan-18 21:25 34.303150 -116.754586 243 24515ft 409kts
05-Jan-18 21:26 34.256783 -116.869714 243 22227ft 381kts
05-Jan-18 21:27 34.210404 -116.985165 246 19947ft 379kts
05-Jan-18 21:28 34.179127 -117.100877 252 18600ft 357kts
05-Jan-18 21:29 34.147801 -117.216065 251 17124ft 365kts
05-Jan-18 21:30 34.116419 -117.329931 251 15608ft 342kts
05-Jan-18 21:31 34.088558 -117.436838 253 13455ft 329kts
05-Jan-18 21:32 34.063161 -117.538521 253 11771ft 309kts
05-Jan-18 21:33 34.038256 -117.629320 254 10856ft 290kts
05-Jan-18 21:34 34.022639 -117.716822 257 9067ft 241kts
05-Jan-18 21:35 34.008585 -117.797950 258 8044ft 283kts
05-Jan-18 21:36 34.001239 -117.894326 265 7033ft 266kts
05-Jan-18 21:37 33.994470 -117.977997 263 5820ft 259kts
05-Jan-18 21:38 33.985815 -118.067202 263 4192ft 278kts
05-Jan-18 21:39 33.977338 -118.153694 263 3101ft 245kts
05-Jan-18 21:40 33.969583 -118.230935 262 2162ft 223kts
05-Jan-18 21:41 33.962248 -118.302811 263 1187ft 207kts
05-Jan-18 21:42 33.956212 -118.364923 266 685ft 177kts
05-Jan-18 21:43 33.950896 -118.413964 262 133ft 68kts
05-Jan-18 21:44 33.947971 -118.421522 235 133ft 18kts
05-Jan-18 21:45 33.947040 -118.419946 77 133ft 3kts
05-Jan-18 21:46 33.947590 -118.415033 81 133ft 25kts
05-Jan-18 21:47 33.948686 -118.405667 83 133ft 31kts
05-Jan-18 21:48 33.948290 -118.400474 152 133ft 20kts
05-Jan-18 21:49 33.946452 -118.400652 261 133ft 0kts
05-Jan-18 21:50 33.946459 -118.400596 261 133ft 3kts
05-Jan-18 21:51 33.946550 -118.399816 263 132ft 0kts

Navigation Log

Ident Type
Flight plan parsing failed, navigation log unavailable